Flight Track Log - Related Links

Times and Time Zones

All times are in EST time to prevent confusion due to time zone crossing. See the N888FM flight status page for this flight to view local times or setup timezone preferences in your user account.

Time Position Orientation Groundspeed Altitude Reporting Facility
EST Latitude Longitude Course Direction KTS MPH feet Rate Location/Type
Thu 12:21:48 PM 41.2269 -75.8108 224° Southwest 190 219 5,100  Level New York Center
Thu 12:22:48 PM 41.1833 -75.8572 219° Southwest 203 234 6,300 1,200 Climbing New York Center
Thu 12:23:48 PM 41.1536 -75.9186 237° Southwest 211 243 7,500 850 Climbing New York Center
Thu 12:24:48 PM 41.1194 -75.9875 237° Southwest 221 254 8,000 650 Climbing New York Center
Thu 12:25:00 PM 41.0519 -75.8708 185° South  Level Estimated
Thu 12:25:48 PM 41.0625 -76.0464 218° Southwest 234 269 8,800  Level New York Center
Thu 12:26:00 PM 41.0076 -75.9273 224° Southwest  Level FlightAware Approximate
Thu 12:26:49 PM 41.0047 -76.0831 206° Southwest 246 283 9,800  Level New York Center
Thu 12:27:48 PM 40.9489 -76.1172 205° Southwest 246 283 10,700 1,008 Climbing New York Center
Thu 12:28:48 PM 40.8867 -76.1592 207° Southwest 246 283 11,800 1,050 Climbing New York Center
Thu 12:29:48 PM 40.8289 -76.1903 202° Southwest 246 283 12,800 1,000 Climbing New York Center
Thu 12:30:48 PM 40.7731 -76.2269 206° Southwest 241 277 13,800 950 Climbing New York Center
Thu 12:31:48 PM 40.7197 -76.2556 202° Southwest 236 272 14,700 1,100 Climbing New York Center
Thu 12:32:48 PM 40.6597 -76.2917 205° Southwest 230 265 16,000 1,150 Climbing New York Center
Thu 12:33:48 PM 40.6039 -76.3228 203° Southwest 217 250 17,000 950 Climbing New York Center
Thu 12:34:48 PM 40.5547 -76.3542 206° Southwest 217 250 17,900 850 Climbing New York Center
Thu 12:35:48 PM 40.5117 -76.3781 203° Southwest 204 235 18,700 950 Climbing New York Center
Thu 12:36:48 PM 40.4581 -76.4147 207° Southwest 204 235 19,800 1,050 Climbing New York Center
Thu 12:37:48 PM 40.4086 -76.4433 204° Southwest 204 235 20,800 1,000 Climbing New York Center
Thu 12:38:48 PM 40.3697 -76.4728 210° Southwest 198 228 21,800 1,000 Climbing New York Center
Thu 12:39:48 PM 40.3408 -76.5086 223° Southwest 169 194 22,800 1,000 Climbing New York Center
Thu 12:40:48 PM 40.3103 -76.5389 217° Southwest 151 174 23,800 1,000 Climbing New York Center
Thu 12:41:48 PM 40.2817 -76.5692 219° Southwest 141 162 24,800 950 Climbing New York Center
Thu 12:42:48 PM 40.2572 -76.5969 221° Southwest 141 162 25,700 600 Climbing New York Center
Thu 12:43:48 PM 40.2306 -76.6300 223° Southwest 136 157 26,000 150 Climbing New York Center
Thu 12:44:48 PM 40.1978 -76.6625 217° Southwest 143 165 26,000  Level New York Center
Thu 12:45:48 PM 40.1647 -76.7006 221° Southwest 149 171 26,000  Level New York Center
Thu 12:46:48 PM 40.1314 -76.7411 223° Southwest 159 183 26,000  Level New York Center
Thu 12:47:48 PM 40.0961 -76.7789 219° Southwest 165 190 26,000  Level New York Center
Thu 12:49:36 PM 40.0342 -76.8461 220° Southwest 166 191 26,000  Level Washington Center
Thu 12:50:37 PM 39.9964 -76.8886 221° Southwest 166 191 26,000  Level Washington Center
Thu 12:51:38 PM 39.9583 -76.9258 217° Southwest 171 197 26,000  Level Washington Center
Thu 12:52:38 PM 39.9247 -76.9658 222° Southwest 171 197 26,000  Level Washington Center
Thu 12:53:38 PM 39.8867 -77.0056 219° Southwest 171 197 26,000  Level Washington Center
Thu 12:54:36 PM 39.8508 -77.0456 221° Southwest 176 203 26,000  Level Washington Center
Thu 12:55:36 PM 39.8128 -77.0881 221° Southwest 176 203 26,000  Level Washington Center
Thu 12:56:37 PM 39.7789 -77.1250 220° Southwest 176 203 26,000  Level Washington Center
Thu 12:57:37 PM 39.7408 -77.1675 221° Southwest 176 203 26,000  Level Washington Center
Thu 12:58:38 PM 39.7050 -77.2072 220° Southwest 181 208 26,000  Level Washington Center
Thu 12:59:36 PM 39.6689 -77.2467 220° Southwest 181 208 26,000  Level Washington Center
Thu 01:00:36 PM 39.6308 -77.2864 219° Southwest 181 208 26,000  Level Washington Center
Thu 01:01:36 PM 39.5931 -77.3203 215° Southwest 181 208 26,000  Level Washington Center
Thu 01:02:37 PM 39.5425 -77.3433 199° South 187 215 26,000  Level Washington Center
Thu 01:03:37 PM 39.4903 -77.3664 199° South 198 228 26,000  Level Washington Center
Thu 01:04:36 PM 39.4356 -77.3919 200° South 203 234 26,000  Level Washington Center
Thu 01:05:36 PM 39.3811 -77.4147 198° South 208 239 26,000  Level Washington Center
Thu 01:06:36 PM 39.3264 -77.4403 200° South 208 239 26,000  Level Washington Center
Thu 01:07:37 PM 39.2742 -77.4631 199° South 208 239 26,000  Level Washington Center
Thu 01:08:37 PM 39.2194 -77.4883 200° South 208 239 26,000  Level Washington Center
Thu 01:09:38 PM 39.1669 -77.5111 199° South 208 239 26,000  Level Washington Center
Thu 01:10:38 PM 39.1144 -77.5339 199° South 208 239 26,000  Level Washington Center
Thu 01:11:38 PM 39.0578 -77.5592 199° South 208 239 26,000  Level Washington Center
Thu 01:12:36 PM 39.0033 -77.5817 198° South 208 239 26,000  Level Washington Center
Thu 01:13:37 PM 38.9508 -77.6017 197° South 208 239 26,000  Level Washington Center
Thu 01:14:35 PM 38.8942 -77.6267 199° South 208 239 26,000  Level Washington Center
Thu 01:15:36 PM 38.8394 -77.6544 202° Southwest 208 239 26,000  Level Washington Center
Thu 01:16:38 PM 38.7806 -77.6794 198° South 208 239 26,000  Level Washington Center
Thu 01:17:38 PM 38.7281 -77.7019 198° South 208 239 26,000  Level Washington Center
Thu 01:18:35 PM 38.6733 -77.7269 200° South 208 239 26,000  Level Washington Center
Thu 01:19:36 PM 38.6189 -77.7492 198° South 208 239 26,000  Level Washington Center
Thu 01:20:37 PM 38.5622 -77.7742 199° South 208 239 26,000  Level Washington Center
Thu 01:21:37 PM 38.5053 -77.7992 199° South 208 239 26,000  Level Washington Center
Thu 01:22:38 PM 38.4464 -77.8239 198° South 213 245 26,000  Level Washington Center
Thu 01:23:38 PM 38.3919 -77.8486 200° South 213 245 26,000  Level Washington Center
Thu 01:24:37 PM 38.3350 -77.8708 197° South 213 245 26,000  Level Washington Center
Thu 01:25:37 PM 38.2783 -77.8956 199° South 213 245 26,000  Level Washington Center
Thu 01:26:38 PM 38.2217 -77.9203 199° South 213 245 26,000  Level Washington Center
Thu 01:27:36 PM 38.1628 -77.9447 198° South 213 245 26,000  Level Washington Center
Thu 01:28:37 PM 38.1058 -77.9719 201° Southwest 219 252 26,000  Level Washington Center
Thu 01:29:35 PM 38.0492 -77.9967 199° South 219 252 26,000  Level Washington Center
Thu 01:30:36 PM 37.9967 -78.0133 194° South 219 252 26,000  Level Washington Center
Thu 01:31:36 PM 37.9397 -78.0378 199° South 219 252 26,000  Level Washington Center
Thu 01:32:37 PM 37.8744 -78.0672 200° South 225 259 26,000  Level Washington Center
Thu 01:33:38 PM 37.8178 -78.0892 197° South 225 259 26,000  Level Washington Center
Thu 01:34:38 PM 37.7589 -78.1133 198° South 230 265 26,000  Level Washington Center
Thu 01:35:37 PM 37.7019 -78.1406 201° Southwest 230 265 26,000  Level Washington Center
Thu 01:36:36 PM 37.6411 -78.1619 196° South 230 265 26,000  Level Washington Center
Thu 01:37:36 PM 37.5861 -78.1889 201° Southwest 225 259 26,000  Level Washington Center
Thu 01:38:37 PM 37.5250 -78.2156 199° South 225 259 26,000  Level Washington Center
Thu 01:39:38 PM 37.4661 -78.2372 196° South 231 266 26,000  Level Washington Center
Thu 01:40:36 PM 37.4114 -78.2614 199° South 231 266 26,000  Level Washington Center
Thu 01:41:36 PM 37.3525 -78.2856 198° South 231 266 26,000  Level Washington Center
Thu 01:42:37 PM 37.2936 -78.3122 200° South 231 266 26,000  Level Washington Center
Thu 01:43:37 PM 37.2325 -78.3336 196° South 231 266 26,000  Level Washington Center
Thu 01:44:37 PM 37.1736 -78.3600 200° South 231 266 26,000  Level Washington Center
Thu 01:45:38 PM 37.1061 -78.3889 199° South 231 266 26,000  Level Washington Center
Thu 01:46:36 PM 37.0450 -78.4128 197° South 231 266 26,000  Level Washington Center
Thu 01:47:37 PM 36.9839 -78.4364 197° South 231 266 26,000  Level Washington Center
Thu 01:48:37 PM 36.9228 -78.4653 201° Southwest 231 266 26,000  Level Washington Center
Thu 01:49:35 PM 36.8639 -78.4892 198° South 231 266 26,000  Level Washington Center
Thu 01:50:36 PM 36.8028 -78.5128 197° South 231 266 26,000  Level Washington Center
Thu 01:51:37 PM 36.7458 -78.5339 197° South 231 266 26,000  Level Washington Center
Thu 01:52:38 PM 36.6847 -78.5628 201° Southwest 231 266 26,000  Level Washington Center
Thu 01:53:36 PM 36.6256 -78.5914 201° Southwest 231 266 26,000  Level Washington Center
Thu 01:54:37 PM 36.5644 -78.6150 197° South 236 272 26,000  Level Washington Center
Thu 01:55:38 PM 36.5011 -78.6383 196° South 236 272 26,000  Level Washington Center
Thu 01:56:38 PM 36.4400 -78.6644 199° South 231 266 26,000  Level Washington Center
Thu 01:57:36 PM 36.3789 -78.6903 199° South 231 266 26,000  Level Washington Center
Thu 01:58:37 PM 36.3178 -78.7139 197° South 231 266 26,000  Level Washington Center
Thu 01:59:38 PM 36.2567 -78.7369 197° South 231 266 26,000  Level Washington Center
Thu 02:00:36 PM 36.1956 -78.7631 199° South 231 266 26,000  Level Washington Center
Thu 02:01:37 PM 36.1342 -78.7886 199° South 231 266 26,000  Level Washington Center
Thu 02:02:37 PM 36.0711 -78.8119 197° South 231 266 26,000  Level Washington Center
Thu 02:03:36 PM 36.0097 -78.8378 199° South 231 266 26,000  Level Washington Center
Thu 02:04:36 PM 35.9486 -78.8633 199° South 231 266 26,000  Level Washington Center
Thu 02:05:37 PM 35.8875 -78.8889 199° South 231 266 26,000  Level Washington Center
Thu 02:06:38 PM 35.8242 -78.9119 196° South 231 266 26,000  Level Washington Center
Thu 02:07:36 PM 35.7631 -78.9378 199° South 231 266 26,000  Level Washington Center
Thu 02:08:37 PM 35.7017 -78.9631 198° South 231 266 26,000  Level Washington Center
Thu 02:09:37 PM 35.6386 -78.9861 197° South 231 266 26,000  Level Washington Center
Thu 02:10:38 PM 35.5753 -79.0114 198° South 231 266 26,000  Level Washington Center
Thu 02:11:38 PM 35.5119 -79.0369 198° South 231 266 26,000  Level Washington Center
Thu 02:12:36 PM 35.4506 -79.0597 197° South 231 266 26,000  Level Washington Center
Thu 02:13:37 PM 35.3872 -79.0850 198° South 231 266 26,000  Level Washington Center
Thu 02:14:37 PM 35.3325 -79.1056 197° South 231 266 26,000  Level Washington Center
Thu 02:15:38 PM 35.2606 -79.1353 199° South 237 273 26,000  Level Washington Center
Thu 02:16:36 PM 35.1972 -79.1631 200° South 237 273 26,000  Level Washington Center
Thu 02:17:37 PM 35.1339 -79.1858 196° South 242 278 26,000  Level Washington Center
Thu 02:18:38 PM 35.0706 -79.2108 198° South 242 278 26,000  Level Washington Center
Thu 02:19:36 PM 35.0031 -79.2356 197° South 248 285 26,000  Level Washington Center
Thu 02:20:37 PM 34.9397 -79.2581 196° South 248 285 26,000  Level Washington Center
Thu 02:22:17 PM 34.8264 -79.3014 197° South 245 282 26,000  Level Jacksonville Center
Thu 02:23:17 PM 34.7625 -79.3294 200° South 245 282 26,000  Level Jacksonville Center
Thu 02:24:17 PM 34.6983 -79.3522 196° South 240 276 26,000  Level Jacksonville Center
Thu 02:25:17 PM 34.6364 -79.3775 199° South 240 276 26,000  Level Jacksonville Center
Thu 02:26:17 PM 34.5725 -79.4028 198° South 240 276 26,000  Level Jacksonville Center
Thu 02:27:17 PM 34.5086 -79.4256 196° South 240 276 26,000  Level Jacksonville Center
Thu 02:28:17 PM 34.4467 -79.4508 199° South 240 276 26,000  Level Jacksonville Center
Thu 02:29:17 PM 34.3847 -79.4758 198° South 240 276 26,000  Level Jacksonville Center
Thu 02:30:17 PM 34.3228 -79.4983 197° South 240 276 26,000  Level Jacksonville Center
Thu 02:31:17 PM 34.2589 -79.5236 198° South 240 276 26,000  Level Jacksonville Center
Thu 02:32:17 PM 34.2050 -79.5431 197° South 240 276 26,000  Level Jacksonville Center
Thu 02:33:17 PM 34.1389 -79.5683 198° South 240 276 26,000  Level Jacksonville Center
Thu 02:34:17 PM 34.0750 -79.5958 200° South 240 276 26,000  Level Jacksonville Center
Thu 02:35:17 PM 34.0092 -79.6258 201° Southwest 240 276 26,000  Level Jacksonville Center
Thu 02:36:17 PM 33.9556 -79.6603 208° Southwest 240 276 26,000  Level Jacksonville Center
Thu 02:37:17 PM 33.8961 -79.6950 206° Southwest 240 276 26,000  Level Jacksonville Center
Thu 02:38:17 PM 33.8364 -79.7297 206° Southwest 240 276 26,000  Level Jacksonville Center
Thu 02:39:17 PM 33.7789 -79.7644 207° Southwest 240 276 26,000  Level Jacksonville Center
Thu 02:40:17 PM 33.7192 -79.8014 207° Southwest 240 276 26,000  Level Jacksonville Center
Thu 02:41:17 PM 33.6594 -79.8333 204° Southwest 240 276 26,000  Level Jacksonville Center
Thu 02:42:17 PM 33.6019 -79.8703 208° Southwest 235 270 26,000  Level Jacksonville Center
Thu 02:43:17 PM 33.5381 -79.9075 206° Southwest 235 270 26,000  Level Jacksonville Center
Thu 02:44:17 PM 33.4825 -79.9392 205° Southwest 235 270 26,000  Level Jacksonville Center
Thu 02:45:17 PM 33.4311 -79.9708 207° Southwest 235 270 26,000  Level Jacksonville Center
Thu 02:46:17 PM 33.3672 -80.0075 206° Southwest 235 270 26,000  Level Jacksonville Center
Thu 02:47:17 PM 33.3136 -80.0392 206° Southwest 235 270 26,000  Level Jacksonville Center
Thu 02:48:17 PM 33.2561 -80.0733 206° Southwest 235 270 26,000  Level Jacksonville Center
Thu 02:49:17 PM 33.2006 -80.1047 205° Southwest 235 270 26,000  Level Jacksonville Center
Thu 02:50:17 PM 33.1511 -80.1361 208° Southwest 230 265 26,000  Level Jacksonville Center
Thu 02:51:17 PM 33.1017 -80.1650 206° Southwest 223 257 26,000  Level Jacksonville Center
Thu 02:52:17 PM 33.0439 -80.1989 206° Southwest 218 251 26,000  Level Jacksonville Center
Thu 02:53:17 PM 32.9944 -80.2278 206° Southwest 213 245 26,000  Level Jacksonville Center
Thu 02:54:17 PM 32.9283 -80.2642 205° Southwest 220 253 26,000  Level Jacksonville Center
Thu 02:55:17 PM 32.8747 -80.2956 206° Southwest 227 261 26,000  Level Jacksonville Center
Thu 02:56:17 PM 32.8211 -80.3267 206° Southwest 220 253 26,000  Level Jacksonville Center
Thu 02:57:17 PM 32.7694 -80.3578 207° Southwest 220 253 26,000  Level Jacksonville Center
Thu 02:58:17 PM 32.7158 -80.3889 206° Southwest 220 253 26,000  Level Jacksonville Center
Thu 02:59:17 PM 32.6622 -80.4175 204° Southwest 220 253 26,000  Level Jacksonville Center
Thu 03:00:17 PM 32.6086 -80.4486 206° Southwest 219 252 26,000  Level Jacksonville Center
Thu 03:01:17 PM 32.5569 -80.4797 207° Southwest 219 252 26,000  Level Jacksonville Center
Thu 03:02:17 PM 32.5011 -80.5131 207° Southwest 219 252 26,000  Level Jacksonville Center
Thu 03:03:17 PM 32.4475 -80.5417 204° Southwest 219 252 26,000  Level Jacksonville Center
Thu 03:04:17 PM 32.3936 -80.5725 206° Southwest 220 253 26,000  Level Jacksonville Center
Thu 03:05:17 PM 32.3400 -80.6058 208° Southwest 220 253 26,000  Level Jacksonville Center
Thu 03:06:17 PM 32.2842 -80.6367 205° Southwest 220 253 26,000  Level Jacksonville Center
Thu 03:07:17 PM 32.2325 -80.6675 207° Southwest 215 247 26,000  Level Jacksonville Center
Thu 03:08:17 PM 32.1767 -80.6983 205° Southwest 220 253 26,000  Level Jacksonville Center
Thu 03:09:17 PM 32.1292 -80.7239 204° Southwest 214 246 26,000  Level Jacksonville Center
Thu 03:10:17 PM 32.0692 -80.7597 207° Southwest 214 246 26,000  Level Jacksonville Center
Thu 03:11:17 PM 32.0133 -80.7881 203° Southwest 214 246 26,000  Level Jacksonville Center
Thu 03:12:17 PM 31.9658 -80.8183 208° Southwest 214 246 26,000  Level Jacksonville Center
Thu 03:13:17 PM 31.9036 -80.8517 204° Southwest 219 252 26,000  Level Jacksonville Center
Thu 03:14:17 PM 31.8478 -80.8822 205° Southwest 219 252 26,000  Level Jacksonville Center
Thu 03:15:17 PM 31.8003 -80.9125 208° Southwest 219 252 26,000  Level Jacksonville Center
Thu 03:16:17 PM 31.7403 -80.9431 203° Southwest 219 252 26,000  Level Jacksonville Center
Thu 03:17:17 PM 31.6864 -80.9761 208° Southwest 214 246 26,000  Level Jacksonville Center
Thu 03:18:17 PM 31.6389 -81.0014 204° Southwest 214 246 26,000  Level Jacksonville Center
Thu 03:19:17 PM 31.5808 -81.0342 206° Southwest 214 246 26,000 -100 Level Jacksonville Center
Thu 03:20:17 PM 31.5269 -81.0647 206° Southwest 214 246 25,800 -450 Descending Jacksonville Center
Thu 03:21:17 PM 31.4772 -81.0925 205° Southwest 214 246 25,100 -750 Descending Jacksonville Center
Thu 03:22:17 PM 31.4111 -81.1278 204° Southwest 236 272 24,300 -700 Descending Jacksonville Center
Thu 03:23:17 PM 31.3550 -81.1603 206° Southwest 242 278 23,700 -650 Descending Jacksonville Center
Thu 03:24:17 PM 31.2717 -81.1742 188° South 262 302 23,000 -700 Descending Jacksonville Center
Thu 03:25:17 PM 31.1861 -81.1733 180° South 298 343 22,300 -700 Descending Jacksonville Center
Thu 03:26:17 PM 31.1047 -81.1700 178° South 304 350 21,600 -700 Descending Jacksonville Center
Thu 03:27:17 PM 31.0189 -81.1667 178° South 304 350 20,900 -600 Descending Jacksonville Center
Thu 03:28:17 PM 30.9397 -81.1656 179° South 304 350 20,400 -450 Descending Jacksonville Center
Thu 03:29:17 PM 30.8581 -81.1622 178° South 304 350 20,000 -200 Descending Jacksonville Center
Thu 03:30:17 PM 30.7808 -81.1589 178° South 293 337 20,000  Level Jacksonville Center
Thu 03:31:17 PM 30.7014 -81.1556 178° South 286 329 20,000  Level Jacksonville Center
Thu 03:32:17 PM 30.6264 -81.1544 179° South 286 329 20,000  Level Jacksonville Center
Thu 03:33:17 PM 30.5492 -81.1533 179° South 281 323 20,000  Level Jacksonville Center
Thu 03:34:17 PM 30.4739 -81.1500 178° South 281 323 20,000  Level Jacksonville Center
Thu 03:35:17 PM 30.3986 -81.1489 179° South 281 323 20,000  Level Jacksonville Center
Thu 03:36:17 PM 30.3214 -81.1481 179° South 276 318 20,000  Level Jacksonville Center
Thu 03:37:17 PM 30.2442 -81.1444 178° South 271 312 20,000  Level Jacksonville Center
Thu 03:38:17 PM 30.1711 -81.1411 178° South 271 312 20,000  Level Jacksonville Center
Thu 03:39:17 PM 30.1000 -81.1400 179° South 271 312 20,000  Level Jacksonville Center
Thu 03:40:17 PM 30.0269 -81.1364 178° South 266 306 20,000  Level Jacksonville Center
Thu 03:41:17 PM 29.9539 -81.1353 179° South 266 306 20,000  Level Jacksonville Center
Thu 03:42:17 PM 29.8806 -81.1319 178° South 266 306 20,000  Level Jacksonville Center
Thu 03:43:17 PM 29.8014 -81.1308 179° South 276 318 20,000 -650 Level Jacksonville Center
Thu 03:44:17 PM 29.7239 -81.1275 178° South 276 318 18,700 -1,132 Descending Jacksonville Center
Thu 03:45:03 PM 29.6594 -81.1289 181° South 305 351 18,000 -1,100 Descending Jacksonville Center
Thu 03:45:17 PM 29.6364 -81.1267 175° South 292 336 17,600 -1,459 Descending Jacksonville Center
Thu 03:45:40 PM 29.6072 -81.1250 177° South 310 357 17,100 -1,429 Descending Jacksonville Center
Thu 03:46:41 PM 29.5236 -81.1217 178° South 297 342 15,600 -1,546 Descending Jacksonville Center
Thu 03:47:17 PM 29.4775 -81.1200 178° South 308 354 14,600 -1,475 Descending Jacksonville Center
Thu 03:47:42 PM 29.4464 -81.1206 181° South 280 322 14,100 -1,500 Descending Jacksonville Center
Thu 03:48:17 PM 29.3961 -81.1144 174° South 288 331 13,100 -1,279 Descending Jacksonville Center
Thu 03:48:43 PM 29.3606 -81.1197 187° South 284 327 12,800 -700 Descending Jacksonville Center
Thu 03:49:17 PM 29.3167 -81.1133 173° South 288 331 12,400 -702 Descending Jacksonville Center
Thu 03:50:17 PM 29.2375 -81.1100 178° South 288 331 11,700 -700 Descending Jacksonville Center
Thu 03:51:17 PM 29.1600 -81.1019 175° South 288 331 11,000 -650 Descending Jacksonville Center
Thu 03:52:17 PM 29.0786 -81.0989 178° South 288 331 10,400 -500 Descending Jacksonville Center
Thu 03:53:17 PM 29.0033 -81.0906 174° South 288 331 10,000 -200 Descending Jacksonville Center
Thu 03:54:17 PM 28.9261 -81.0850 176° South 288 331 10,000  Level Jacksonville Center
Thu 03:55:17 PM 28.8489 -81.0817 178° South 288 331 10,000  Level Jacksonville Center
Thu 03:56:17 PM 28.7736 -81.0878 184° South 283 326 10,000  Level Jacksonville Center
Thu 03:56:52 PM 28.7333 -81.1000 195° South 264 304 10,000 -63 Level Orlando TRACON
Thu 03:57:52 PM 28.6667 -81.1167 192° South 264 304 9,900  Descending Orlando TRACON
Thu 03:58:47 PM 28.6167 -81.1667 221° Southwest 245 282 10,000 52 Climbing Orlando TRACON
Thu 03:59:47 PM 28.5667 -81.2167 221° Southwest 249 287 10,000  Level Orlando TRACON
Thu 04:00:47 PM 28.5333 -81.2833 240° Southwest 249 287 10,000 -650 Level Orlando TRACON
Thu 04:01:47 PM 28.5000 -81.3500 240° Southwest 266 306 8,700 -1,450 Descending Orlando TRACON
Thu 04:02:47 PM 28.4667 -81.4167 240° Southwest 240 276 7,100 -1,537 Descending Orlando TRACON
Thu 04:03:48 PM 28.4000 -81.4000 168° South 216 249 5,600 -1,276 Descending Orlando TRACON
Thu 04:04:54 PM 28.3333 -81.4000 180° South 219 252 4,400 -1,238 Descending Orlando TRACON
Thu 04:05:54 PM 28.3167 -81.3500 111° Southeast 183 211 3,000 -1,526 Descending Orlando TRACON
Thu 04:06:48 PM 28.3500 -81.3167 41° Northeast 163 188 1,500 -1,278 Descending Orlando TRACON
Thu 04:07:42 PM 28.3833 -81.3167 360° North 131 151 700 -889 Descending Orlando TRACON
Thu 04:10:00 PM 28.4167 -81.3000 47° Northeast  Level FlightAware Approximate
Thu 04:17:00 PM 28.4294 -81.3090 47° Northeast  Level Estimated
Thu 04:18:00 PM 28.4294 -81.3090 47° Northeast  Level Estimated

Login

Don't have an account? Register now (free) for customized features, flight alerts, and more!